Time;durP1;ratioP1;P1;durP2;ratioP2;P2;SDS_P1;SDS_P2;PMS_P1;PMS_P2;Temp;Humidity;BMP_temperature;BMP_pressure;BME280_temperature;BME280_humidity;BME280_pressure;Samples;Min_cycle;Max_cycle;Signal;HPM_P1;HPM_P2
2021/09/22 00:00:38;;;;;;;2.45;1.80;;;9.80;84.20;;;;;;5076906;28;20028;-64
2021/09/22 00:03:04;;;;;;;2.97;1.80;;;9.70;84.30;;;;;;5074670;28;20032;-66
2021/09/22 00:05:30;;;;;;;3.40;1.77;;;9.70;84.20;;;;;;5056618;28;20029;-65
2021/09/22 00:07:56;;;;;;;3.67;1.88;;;9.70;84.50;;;;;;5072647;28;20413;-65
2021/09/22 00:10:22;;;;;;;2.50;1.90;;;9.70;84.80;;;;;;5057828;28;20119;-65
2021/09/22 00:12:48;;;;;;;1.90;1.60;;;9.70;84.90;;;;;;5074670;28;20541;-64
2021/09/22 00:15:16;;;;;;;2.38;1.60;;;9.60;84.70;;;;;;5076652;28;20047;-64
2021/09/22 00:17:42;;;;;;;2.97;1.80;;;9.60;84.70;;;;;;5074606;28;20033;-64
2021/09/22 00:20:11;;;;;;;2.67;1.77;;;9.60;84.70;;;;;;5076250;28;20032;-65
2021/09/22 00:22:37;;;;;;;2.97;1.58;;;9.60;84.90;;;;;;5067580;28;20028;-65
2021/09/22 00:25:05;;;;;;;2.17;1.65;;;9.60;84.80;;;;;;5056409;28;20111;-64
2021/09/22 00:27:31;;;;;;;2.78;1.58;;;9.60;84.80;;;;;;5056236;28;20042;-64
2021/09/22 00:29:58;;;;;;;2.63;1.60;;;9.60;84.80;;;;;;5039187;28;20486;-63
2021/09/22 00:32:25;;;;;;;2.90;1.70;;;9.60;84.80;;;;;;5045535;28;20025;-64
2021/09/22 00:34:51;;;;;;;2.03;1.70;;;9.60;85.00;;;;;;5056060;28;20020;-64
2021/09/22 00:37:16;;;;;;;2.72;1.40;;;9.60;85.00;;;;;;5055966;28;20554;-64
2021/09/22 00:39:42;;;;;;;2.10;1.50;;;9.50;84.90;;;;;;5056296;28;20021;-64
2021/09/22 00:42:08;;;;;;;2.33;1.40;;;9.50;85.10;;;;;;5046330;28;20036;-63
2021/09/22 00:44:55;;;;;;;2.25;1.40;;;9.50;85.10;;;;;;5058070;28;20082;-65
2021/09/22 00:47:26;;;;;;;2.88;1.60;;;9.50;85.20;;;;;;5076209;28;20029;-64
2021/09/22 00:49:52;;;;;;;2.80;1.70;;;9.50;85.30;;;;;;5062426;28;20029;-64
2021/09/22 00:52:19;;;;;;;1.55;1.40;;;9.50;85.20;;;;;;5075869;28;20532;-64
2021/09/22 00:54:46;;;;;;;3.53;1.60;;;9.50;85.20;;;;;;5075776;28;20382;-64
2021/09/22 00:57:14;;;;;;;2.40;1.60;;;9.60;85.30;;;;;;5057742;28;20036;-64
2021/09/22 00:59:40;;;;;;;2.00;1.70;;;9.60;85.10;;;;;;5055689;28;20025;-65
2021/09/22 01:02:07;;;;;;;2.15;1.95;;;9.50;85.00;;;;;;5073744;28;20021;-65
2021/09/22 01:04:33;;;;;;;1.95;1.60;;;9.50;85.20;;;;;;5057582;28;20069;-64
2021/09/22 01:06:59;;;;;;;1.67;1.40;;;9.60;85.30;;;;;;5075460;28;20448;-64
2021/09/22 01:09:26;;;;;;;2.33;1.80;;;9.50;85.20;;;;;;5074425;28;20037;-66
2021/09/22 01:11:52;;;;;;;3.00;1.80;;;9.60;85.30;;;;;;5055389;28;20039;-64
2021/09/22 01:14:23;;;;;;;2.80;1.70;;;9.60;85.50;;;;;;5038319;28;20058;-65
2021/09/22 01:16:50;;;;;;;4.53;2.08;;;9.60;85.50;;;;;;5049548;28;20124;-64
2021/09/22 01:19:16;;;;;;;2.13;1.75;;;9.60;85.40;;;;;;5056222;28;20480;-64
2021/09/22 01:21:43;;;;;;;3.47;1.70;;;9.60;85.30;;;;;;5057779;28;20036;-64
2021/09/22 01:24:09;;;;;;;2.05;1.50;;;9.60;85.30;;;;;;5075291;28;20125;-64
2021/09/22 01:26:35;;;;;;;3.55;1.80;;;9.50;85.30;;;;;;5064246;28;20530;-65
2021/09/22 01:29:00;;;;;;;1.90;1.67;;;9.50;85.50;;;;;;5065079;28;20155;-66
2021/09/22 01:31:26;;;;;;;1.70;1.60;;;9.50;85.50;;;;;;5069106;28;20482;-66
2021/09/22 01:33:53;;;;;;;3.22;1.70;;;9.50;85.50;;;;;;5058687;28;20025;-65
2021/09/22 01:36:19;;;;;;;2.83;1.90;;;9.50;85.40;;;;;;5067520;28;20387;-65
2021/09/22 01:38:45;;;;;;;2.70;1.65;;;9.50;86.00;;;;;;5074882;28;20025;-66
2021/09/22 01:41:12;;;;;;;2.08;1.80;;;9.50;85.70;;;;;;5073119;28;20078;-65
2021/09/22 01:43:39;;;;;;;2.60;1.90;;;9.50;85.90;;;;;;5062784;28;20040;-66
2021/09/22 01:46:07;;;;;;;2.22;1.73;;;9.50;85.90;;;;;;5046031;28;20036;-65
2021/09/22 01:48:33;;;;;;;1.77;1.60;;;9.50;85.80;;;;;;5056822;28;20027;-66
2021/09/22 01:51:01;;;;;;;2.58;1.60;;;9.50;85.80;;;;;;5055051;28;20085;-65
2021/09/22 01:53:27;;;;;;;2.95;1.70;;;9.50;85.80;;;;;;5071840;28;20052;-64
2021/09/22 01:55:55;;;;;;;2.83;1.70;;;9.50;85.70;;;;;;5062611;28;20029;-67
2021/09/22 01:58:21;;;;;;;2.63;1.75;;;9.50;86.10;;;;;;5074287;28;20021;-66
2021/09/22 02:00:47;;;;;;;2.88;1.80;;;9.50;86.30;;;;;;5048220;28;20028;-65
2021/09/22 02:03:15;;;;;;;2.53;1.80;;;9.50;86.40;;;;;;5036680;28;20025;-65
2021/09/22 02:05:42;;;;;;;2.55;1.95;;;9.50;86.40;;;;;;5066905;28;20051;-65
2021/09/22 02:08:07;;;;;;;2.53;1.70;;;9.50;86.30;;;;;;5074494;28;20028;-65
2021/09/22 02:10:33;;;;;;;5.88;1.77;;;9.50;86.30;;;;;;5062496;28;20021;-65
2021/09/22 02:12:59;;;;;;;3.08;2.35;;;9.50;86.30;;;;;;5045486;28;20036;-67
2021/09/22 02:15:24;;;;;;;3.90;2.25;;;9.40;86.60;;;;;;5054103;28;20025;-65
2021/09/22 02:17:50;;;;;;;3.08;1.88;;;9.40;86.90;;;;;;5056340;28;20029;-65
2021/09/22 02:20:16;;;;;;;3.88;2.00;;;9.40;86.80;;;;;;5037255;28;20032;-65
2021/09/22 02:22:42;;;;;;;3.45;1.90;;;9.50;86.70;;;;;;5068770;28;20035;-65
2021/09/22 02:25:09;;;;;;;2.92;2.05;;;9.40;86.50;;;;;;5074135;28;20094;-65
2021/09/22 02:27:35;;;;;;;3.10;1.90;;;9.40;86.50;;;;;;5073922;28;20572;-65
2021/09/22 02:30:05;;;;;;;2.95;1.90;;;9.50;86.50;;;;;;5073153;28;20047;-66
2021/09/22 02:32:30;;;;;;;3.33;2.20;;;9.50;86.50;;;;;;5073640;28;20103;-66
2021/09/22 02:34:56;;;;;;;3.83;2.17;;;9.50;86.60;;;;;;5055957;28;20448;-65
2021/09/22 02:37:22;;;;;;;2.55;2.00;;;9.50;86.50;;;;;;5073951;28;20433;-66
2021/09/22 02:39:47;;;;;;;4.13;1.90;;;9.50;86.20;;;;;;5073744;28;20036;-65
2021/09/22 02:42:13;;;;;;;4.70;2.80;;;9.50;86.00;;;;;;5041054;28;20033;-65
2021/09/22 02:44:39;;;;;;;4.22;2.30;;;9.50;85.80;;;;;;5053838;28;20083;-65
2021/09/22 02:47:04;;;;;;;2.78;1.85;;;9.50;85.90;;;;;;5054764;28;20028;-67
2021/09/22 02:49:30;;;;;;;2.45;1.92;;;9.50;85.80;;;;;;5054220;28;20455;-67
2021/09/22 02:51:56;;;;;;;4.47;2.45;;;9.50;85.60;;;;;;5064971;28;20032;-65
2021/09/22 02:54:21;;;;;;;2.45;1.90;;;9.50;85.60;;;;;;5055846;28;20047;-66
2021/09/22 02:56:47;;;;;;;2.40;2.10;;;9.50;85.70;;;;;;5073455;28;20029;-65
2021/09/22 02:59:13;;;;;;;2.80;2.10;;;9.50;85.80;;;;;;5052101;28;20071;-65
2021/09/22 03:01:39;;;;;;;3.75;2.20;;;9.50;85.70;;;;;;5062657;28;20028;-65
2021/09/22 03:04:05;;;;;;;4.03;2.20;;;9.50;85.60;;;;;;5052234;28;20028;-67
2021/09/22 03:06:31;;;;;;;4.25;2.20;;;9.50;85.70;;;;;;5073212;28;20056;-65
2021/09/22 03:08:56;;;;;;;4.18;2.35;;;9.40;85.90;;;;;;5073397;28;20099;-65
2021/09/22 03:11:22;;;;;;;3.55;2.40;;;9.40;85.90;;;;;;5067440;28;20025;-66
2021/09/22 03:13:48;;;;;;;3.30;2.47;;;9.40;85.80;;;;;;5053693;28;20025;-65
2021/09/22 03:16:13;;;;;;;3.67;2.30;;;9.40;85.90;;;;;;5054879;28;20043;-67
2021/09/22 03:18:40;;;;;;;3.72;2.40;;;9.40;86.00;;;;;;5054254;28;20053;-66
2021/09/22 03:21:06;;;;;;;4.97;3.00;;;9.40;85.90;;;;;;5065148;28;20464;-66
2021/09/22 03:23:32;;;;;;;4.47;2.67;;;9.40;85.60;;;;;;5053221;28;20079;-65
2021/09/22 03:25:58;;;;;;;4.43;2.65;;;9.40;85.40;;;;;;5037041;28;20029;-66
2021/09/22 03:28:24;;;;;;;4.03;2.38;;;9.40;85.30;;;;;;5073105;28;20056;-66
2021/09/22 03:30:51;;;;;;;4.95;2.80;;;9.40;85.40;;;;;;5073213;28;20036;-66
2021/09/22 03:33:17;;;;;;;6.35;2.88;;;9.40;85.40;;;;;;5072730;28;20020;-65
2021/09/22 03:35:44;;;;;;;6.05;2.92;;;9.40;85.30;;;;;;5063536;28;20029;-66
2021/09/22 03:38:10;;;;;;;3.60;2.33;;;9.40;85.30;;;;;;5066927;28;20490;-66
2021/09/22 03:40:37;;;;;;;5.45;2.47;;;9.40;85.20;;;;;;5063771;28;20075;-66
2021/09/22 03:43:03;;;;;;;3.30;2.35;;;9.40;85.30;;;;;;5052716;28;20035;-66
2021/09/22 03:45:29;;;;;;;4.60;2.30;;;9.40;85.30;;;;;;5075862;28;20020;-67
2021/09/22 03:47:55;;;;;;;3.88;2.45;;;9.40;85.30;;;;;;5046855;28;20124;-66
2021/09/22 03:50:21;;;;;;;3.42;2.22;;;9.40;85.30;;;;;;5039175;28;20120;-65
2021/09/22 03:52:47;;;;;;;3.45;2.33;;;9.40;85.40;;;;;;5039126;28;20111;-67
2021/09/22 03:55:12;;;;;;;4.30;2.35;;;9.40;85.30;;;;;;5056853;28;20025;-65
2021/09/22 03:57:38;;;;;;;5.18;2.47;;;9.40;85.30;;;;;;5061533;28;20047;-64
2021/09/22 04:00:05;;;;;;;4.22;2.80;;;9.40;85.30;;;;;;5063773;28;20427;-67
2021/09/22 04:02:30;;;;;;;7.10;2.80;;;9.40;85.30;;;;;;5057569;28;20036;-64
2021/09/22 04:04:56;;;;;;;5.53;2.50;;;9.40;85.40;;;;;;5076571;28;20103;-64
2021/09/22 04:07:22;;;;;;;4.50;2.53;;;9.40;85.40;;;;;;5069263;28;20059;-66
2021/09/22 04:09:47;;;;;;;6.75;3.50;;;9.40;85.20;;;;;;5053606;28;20027;-65
2021/09/22 04:12:13;;;;;;;4.88;2.60;;;9.50;85.20;;;;;;5057800;28;20451;-64
2021/09/22 04:14:39;;;;;;;4.25;2.70;;;9.50;85.10;;;;;;5062837;28;20068;-63
2021/09/22 04:17:04;;;;;;;4.22;2.70;;;9.50;84.90;;;;;;5039646;28;20037;-65
2021/09/22 04:19:30;;;;;;;6.57;3.03;;;9.50;84.90;;;;;;5053967;28;20024;-63
2021/09/22 04:21:56;;;;;;;6.68;3.60;;;9.50;84.80;;;;;;5065502;28;20032;-65
2021/09/22 04:24:21;;;;;;;6.72;3.80;;;9.60;84.90;;;;;;5055910;28;20025;-65
2021/09/22 04:26:47;;;;;;;5.78;3.15;;;9.60;85.20;;;;;;5039070;28;20127;-65
2021/09/22 04:29:12;;;;;;;5.75;2.88;;;9.60;84.40;;;;;;5055576;28;20029;-64
2021/09/22 04:31:40;;;;;;;4.07;2.75;;;9.60;84.30;;;;;;5058883;28;20399;-64
2021/09/22 04:34:06;;;;;;;4.22;2.70;;;9.60;84.20;;;;;;5067370;28;20032;-66
2021/09/22 04:36:32;;;;;;;5.47;2.70;;;9.70;84.10;;;;;;5062073;28;20036;-66
2021/09/22 04:38:57;;;;;;;5.38;2.50;;;9.70;83.80;;;;;;5075759;28;20119;-70
2021/09/22 04:41:23;;;;;;;4.53;2.75;;;9.70;83.70;;;;;;5069783;28;20029;-69
2021/09/22 04:43:49;;;;;;;5.88;3.10;;;9.70;83.80;;;;;;5074661;28;20082;-74
2021/09/22 04:46:16;;;;;;;4.65;2.80;;;9.70;83.50;;;;;;5064990;28;20063;-76
2021/09/22 04:48:42;;;;;;;10.32;2.85;;;9.70;84.00;;;;;;5077330;28;20222;-69
2021/09/22 04:51:07;;;;;;;5.63;3.08;;;9.70;83.50;;;;;;5084759;28;20028;-67
2021/09/22 04:53:33;;;;;;;6.45;3.33;;;9.80;83.30;;;;;;5075644;28;20073;-68
2021/09/22 04:55:59;;;;;;;5.95;3.13;;;9.80;83.00;;;;;;5057680;28;20395;-67
2021/09/22 04:58:25;;;;;;;5.22;2.70;;;9.80;83.10;;;;;;5075298;28;20107;-73
2021/09/22 05:00:51;;;;;;;5.50;2.60;;;9.80;83.10;;;;;;5057438;28;20028;-69
2021/09/22 05:03:16;;;;;;;4.72;2.95;;;9.90;82.90;;;;;;5075443;28;20060;-72
2021/09/22 05:05:43;;;;;;;5.20;3.00;;;9.80;83.00;;;;;;5075107;28;20098;-67
2021/09/22 05:08:09;;;;;;;4.70;2.83;;;9.80;83.10;;;;;;5057424;28;20043;-69
2021/09/22 05:10:35;;;;;;;4.97;3.03;;;9.90;83.10;;;;;;5075752;28;20029;-69
2021/09/22 05:13:02;;;;;;;4.47;2.80;;;9.90;82.80;;;;;;5075349;28;20152;-70
2021/09/22 05:15:30;;;;;;;3.65;2.30;;;10.00;82.50;;;;;;5057653;28;20028;-71
2021/09/22 05:17:56;;;;;;;7.38;3.00;;;10.10;82.30;;;;;;5057189;28;20096;-70
2021/09/22 05:20:22;;;;;;;5.03;2.67;;;10.10;81.80;;;;;;5070306;28;20111;-71
2021/09/22 05:22:48;;;;;;;3.97;3.00;;;10.20;81.80;;;;;;5077199;28;20039;-70
2021/09/22 05:25:14;;;;;;;6.07;2.85;;;10.30;81.60;;;;;;5077123;28;20020;-70
2021/09/22 05:27:39;;;;;;;3.88;2.25;;;10.50;81.20;;;;;;5095481;28;20363;-70
2021/09/22 05:30:06;;;;;;;4.57;2.53;;;10.60;80.30;;;;;;5077206;28;20066;-72
2021/09/22 05:32:32;;;;;;;4.13;2.40;;;10.80;80.00;;;;;;5095214;28;20126;-70
2021/09/22 05:34:57;;;;;;;4.10;2.50;;;11.10;79.50;;;;;;5094953;28;20028;-71
2021/09/22 05:37:23;;;;;;;6.05;2.35;;;11.20;78.70;;;;;;5077099;28;20373;-70
2021/09/22 05:39:49;;;;;;;3.28;2.20;;;11.40;77.90;;;;;;5095284;28;20103;-70
2021/09/22 05:42:15;;;;;;;3.72;2.20;;;11.60;76.90;;;;;;5076879;28;20454;-70
2021/09/22 05:44:41;;;;;;;3.63;2.40;;;11.70;76.20;;;;;;5095064;28;20024;-70
2021/09/22 05:47:07;;;;;;;3.58;2.28;;;11.70;75.70;;;;;;5095017;28;20076;-70
2021/09/22 05:49:33;;;;;;;4.35;2.60;;;11.70;75.00;;;;;;5076356;28;20058;-71
2021/09/22 05:51:58;;;;;;;4.03;2.55;;;11.80;74.80;;;;;;5094208;28;20089;-70
2021/09/22 05:54:24;;;;;;;5.75;2.70;;;11.80;74.70;;;;;;5094759;28;20390;-70
2021/09/22 05:56:50;;;;;;;3.53;2.70;;;11.70;74.50;;;;;;5076673;28;20069;-70
2021/09/22 05:59:15;;;;;;;3.78;2.90;;;11.60;75.00;;;;;;5094732;28;20025;-70
2021/09/22 06:01:41;;;;;;;5.50;3.03;;;11.50;75.30;;;;;;5094714;28;20038;-71
2021/09/22 06:04:07;;;;;;;4.05;2.92;;;11.60;75.50;;;;;;5094694;28;20416;-71
2021/09/22 06:06:33;;;;;;;5.32;3.30;;;11.50;75.00;;;;;;5094316;28;20051;-70
2021/09/22 06:08:59;;;;;;;6.32;3.95;;;11.50;75.20;;;;;;5094752;28;20382;-70
2021/09/22 06:11:26;;;;;;;4.05;3.25;;;11.50;75.20;;;;;;5094556;28;20111;-75
2021/09/22 06:13:55;;;;;;;6.80;3.00;;;11.50;75.00;;;;;;5076559;28;20123;-71
2021/09/22 06:16:23;;;;;;;5.72;2.88;;;11.50;74.80;;;;;;5057641;28;20387;-72
2021/09/22 06:18:49;;;;;;;4.90;2.90;;;11.50;74.60;;;;;;5056286;28;20106;-70
2021/09/22 06:21:14;;;;;;;4.10;2.85;;;11.50;74.70;;;;;;5074194;28;20488;-70
2021/09/22 06:23:41;;;;;;;6.90;3.50;;;11.50;74.90;;;;;;5056134;28;20082;-72
2021/09/22 06:26:06;;;;;;;5.75;2.80;;;11.60;74.70;;;;;;5073663;28;20044;-70
2021/09/22 06:28:33;;;;;;;4.50;3.22;;;11.70;74.30;;;;;;5074299;28;20111;-71
2021/09/22 06:30:59;;;;;;;3.63;2.47;;;11.70;74.10;;;;;;5055989;28;20025;-71
2021/09/22 06:33:25;;;;;;;3.78;2.53;;;11.70;74.00;;;;;;5074010;28;20490;-71
2021/09/22 06:35:50;;;;;;;3.60;2.60;;;11.70;73.70;;;;;;5074182;28;20024;-70
2021/09/22 06:38:16;;;;;;;6.45;3.47;;;11.70;73.80;;;;;;5074269;28;20021;-65
2021/09/22 06:40:42;;;;;;;6.38;2.80;;;11.60;73.90;;;;;;5055805;28;20033;-72
2021/09/22 06:43:08;;;;;;;4.65;3.00;;;11.50;73.80;;;;;;5073608;28;20074;-71
2021/09/22 06:45:34;;;;;;;6.25;3.63;;;11.30;74.10;;;;;;5055999;28;20386;-74
2021/09/22 06:48:00;;;;;;;4.78;3.63;;;11.30;74.10;;;;;;5072989;28;20114;-73
2021/09/22 06:50:28;;;;;;;6.95;3.50;;;11.30;74.50;;;;;;5073769;28;20028;-72
2021/09/22 06:52:54;;;;;;;6.40;3.42;;;11.20;74.60;;;;;;5073701;28;20025;-73
2021/09/22 06:55:19;;;;;;;5.53;3.85;;;11.20;74.80;;;;;;5055826;28;20116;-72
2021/09/22 06:57:46;;;;;;;6.30;3.35;;;11.10;75.20;;;;;;5055519;28;20451;-74
2021/09/22 07:00:13;;;;;;;4.53;3.10;;;11.10;75.60;;;;;;5073543;28;20107;-73
2021/09/22 07:02:40;;;;;;;4.20;2.90;;;11.20;75.50;;;;;;5073194;28;20488;-72
2021/09/22 07:05:07;;;;;;;3.70;2.65;;;11.30;75.10;;;;;;5073461;28;20375;-74
2021/09/22 07:07:33;;;;;;;5.00;2.95;;;11.40;75.20;;;;;;5073681;28;20045;-68
2021/09/22 07:09:59;;;;;;;4.72;2.90;;;11.40;74.50;;;;;;5073198;28;20082;-68
2021/09/22 07:12:24;;;;;;;4.18;2.22;;;11.40;74.20;;;;;;5072757;28;20028;-68
2021/09/22 07:14:50;;;;;;;5.35;2.55;;;11.50;73.50;;;;;;5054651;28;20020;-67
2021/09/22 07:17:17;;;;;;;3.53;2.35;;;11.60;73.50;;;;;;5054065;28;20024;-68
2021/09/22 07:19:44;;;;;;;4.13;2.90;;;11.70;73.20;;;;;;5072136;28;20029;-68
2021/09/22 07:22:09;;;;;;;3.95;2.83;;;11.80;73.00;;;;;;5072590;28;20017;-68
2021/09/22 07:24:35;;;;;;;7.53;2.78;;;11.90;73.00;;;;;;5073526;28;20025;-67
2021/09/22 07:27:00;;;;;;;5.35;2.90;;;12.00;72.60;;;;;;5055242;28;20078;-68
2021/09/22 07:29:27;;;;;;;4.30;3.10;;;12.10;72.00;;;;;;5073200;28;20024;-68
2021/09/22 07:31:53;;;;;;;7.60;4.03;;;12.20;72.50;;;;;;5072657;28;20032;-69
2021/09/22 07:34:19;;;;;;;5.78;4.32;;;12.30;71.50;;;;;;5072857;28;20020;-67
2021/09/22 07:36:44;;;;;;;5.82;4.10;;;12.20;71.40;;;;;;5072790;28;20393;-71
2021/09/22 07:39:10;;;;;;;7.55;4.00;;;12.20;71.60;;;;;;5051978;28;20024;-70
2021/09/22 07:41:36;;;;;;;5.78;4.38;;;12.30;71.90;;;;;;5072627;28;20062;-69
2021/09/22 07:44:03;;;;;;;7.05;5.13;;;12.50;71.30;;;;;;5072427;28;20390;-69
2021/09/22 07:46:28;;;;;;;9.70;6.43;;;12.50;70.70;;;;;;5072375;28;20765;-68
2021/09/22 07:48:54;;;;;;;7.50;5.13;;;12.50;70.50;;;;;;5069569;28;20074;-69
2021/09/22 07:51:20;;;;;;;8.05;6.00;;;12.40;70.70;;;;;;5072483;28;20073;-68
2021/09/22 07:53:45;;;;;;;7.57;6.18;;;12.20;70.60;;;;;;5054225;28;20108;-67
2021/09/22 07:56:11;;;;;;;9.75;7.03;;;12.20;71.10;;;;;;5054347;28;20035;-68
2021/09/22 07:58:37;;;;;;;9.30;7.10;;;12.20;71.40;;;;;;5072947;28;20024;-68
2021/09/22 08:01:02;;;;;;;8.80;6.97;;;12.20;71.50;;;;;;5072086;28;20036;-68
2021/09/22 08:03:28;;;;;;;9.68;7.20;;;12.20;71.50;;;;;;5072882;28;20104;-68
2021/09/22 08:05:54;;;;;;;10.65;7.82;;;12.20;71.50;;;;;;5072598;28;20052;-67
2021/09/22 08:08:20;;;;;;;8.93;7.25;;;12.20;71.80;;;;;;5055257;28;20101;-67
2021/09/22 08:10:47;;;;;;;8.25;6.05;;;12.20;71.70;;;;;;5055036;28;20078;-67
2021/09/22 08:13:13;;;;;;;8.23;5.80;;;12.40;71.40;;;;;;5072807;28;20078;-68
2021/09/22 08:15:39;;;;;;;9.93;6.63;;;12.50;71.10;;;;;;5076486;28;20394;-67
2021/09/22 08:18:05;;;;;;;9.40;5.78;;;12.80;70.90;;;;;;5076594;28;20028;-68
2021/09/22 08:20:31;;;;;;;7.97;5.60;;;13.00;70.50;;;;;;5058355;28;20070;-67
2021/09/22 08:22:57;;;;;;;8.15;5.50;;;13.30;69.60;;;;;;5058203;28;20047;-67
2021/09/22 08:25:22;;;;;;;7.25;5.15;;;13.40;68.40;;;;;;5076488;28;20028;-67
2021/09/22 08:27:48;;;;;;;6.78;5.35;;;13.30;68.10;;;;;;5076098;28;20070;-68
2021/09/22 08:30:15;;;;;;;8.30;5.72;;;13.20;68.40;;;;;;5076102;28;20108;-68
2021/09/22 08:32:41;;;;;;;8.93;6.15;;;13.10;68.50;;;;;;5076062;28;20095;-67
2021/09/22 08:35:08;;;;;;;8.05;6.25;;;13.20;68.40;;;;;;5075917;28;20028;-67
2021/09/22 08:37:33;;;;;;;9.93;7.00;;;13.20;68.00;;;;;;5076317;28;20035;-68
2021/09/22 08:39:59;;;;;;;7.85;6.05;;;13.20;67.60;;;;;;5076369;28;20451;-67
2021/09/22 08:42:25;;;;;;;12.40;7.32;;;13.10;67.70;;;;;;5057991;28;20508;-67
2021/09/22 08:44:51;;;;;;;12.65;7.43;;;13.00;68.10;;;;;;5057730;28;20115;-67
2021/09/22 08:47:17;;;;;;;8.52;6.85;;;12.80;68.40;;;;;;5058330;28;20040;-67
2021/09/22 08:49:43;;;;;;;10.80;7.88;;;12.60;68.60;;;;;;5075910;28;20440;-68
2021/09/22 08:52:09;;;;;;;10.18;7.93;;;12.40;69.00;;;;;;5076225;28;20107;-66
2021/09/22 08:54:35;;;;;;;11.13;8.55;;;12.10;69.40;;;;;;5075952;28;20104;-67
2021/09/22 08:57:01;;;;;;;11.88;8.27;;;11.90;70.20;;;;;;5057708;28;20039;-68
2021/09/22 08:59:27;;;;;;;11.23;7.63;;;11.80;71.10;;;;;;5075554;28;20028;-67
2021/09/22 09:02:10;;;;;;;12.65;8.80;;;11.90;71.60;;;;;;5075608;28;20017;-68
2021/09/22 09:04:37;;;;;;;11.73;6.75;;;12.10;72.00;;;;;;5057685;28;20379;-67
2021/09/22 09:07:03;;;;;;;11.63;6.53;;;12.30;71.50;;;;;;5057254;28;20143;-68
2021/09/22 09:09:37;;;;;;;9.93;5.65;;;12.70;70.60;;;;;;5057502;28;20028;-68
2021/09/22 09:12:14;;;;;;;7.55;5.55;;;13.00;69.40;;;;;;5057571;28;20090;-67
2021/09/22 09:14:40;;;;;;;7.97;5.30;;;13.30;69.00;;;;;;5075697;28;20352;-74
2021/09/22 09:17:11;;;;;;;9.35;5.47;;;13.70;68.20;;;;;;5057527;28;20032;-73
2021/09/22 09:19:45;;;;;;;8.18;5.15;;;14.00;67.30;;;;;;5074882;28;20111;-74
2021/09/22 09:22:12;;;;;;;7.40;5.00;;;14.30;66.00;;;;;;5075093;28;20024;-74
2021/09/22 09:24:46;;;;;;;7.15;4.70;;;14.50;65.30;;;;;;5057654;28;20107;-75
2021/09/22 09:27:23;;;;;;;9.73;4.97;;;14.70;64.40;;;;;;5073812;28;20071;-75
2021/09/22 09:29:56;;;;;;;6.05;4.38;;;14.80;63.70;;;;;;5057534;28;20040;-74
2021/09/22 09:32:25;;;;;;;7.35;4.32;;;14.90;63.20;;;;;;5074730;28;20032;-75
2021/09/22 09:35:03;;;;;;;6.80;4.45;;;14.70;63.10;;;;;;5057274;28;20071;-74
2021/09/22 09:37:53;;;;;;;9.32;4.93;;;14.70;62.90;;;;;;5075105;28;20477;-74
2021/09/22 09:40:33;;;;;;;6.85;5.35;;;14.80;62.70;;;;;;5057375;28;20031;-74
2021/09/22 09:43:02;;;;;;;7.07;5.65;;;14.90;63.30;;;;;;5056698;28;20032;-74
2021/09/22 09:45:46;;;;;;;7.22;5.50;;;14.90;62.90;;;;;;5074855;28;20082;-74
2021/09/22 09:48:15;;;;;;;7.32;5.38;;;14.80;62.60;;;;;;5056797;28;20062;-74
2021/09/22 09:50:48;;;;;;;7.63;6.00;;;14.70;63.10;;;;;;5056560;28;20031;-74
2021/09/22 09:53:25;;;;;;;8.50;5.68;;;14.70;63.00;;;;;;5056781;28;20050;-74
2021/09/22 09:55:51;;;;;;;7.28;5.88;;;14.60;62.40;;;;;;5074658;28;20367;-74
2021/09/22 09:58:19;;;;;;;7.97;6.75;;;14.50;62.50;;;;;;5056449;28;20025;-75
2021/09/22 10:00:48;;;;;;;9.77;6.57;;;14.40;62.80;;;;;;5056635;28;20061;-76
2021/09/22 10:03:17;;;;;;;8.68;6.20;;;14.10;63.30;;;;;;5074525;28;20021;-74
2021/09/22 10:05:44;;;;;;;8.50;6.20;;;14.10;63.40;;;;;;5056225;28;20053;-74
2021/09/22 10:08:11;;;;;;;8.35;5.38;;;14.00;63.20;;;;;;5074309;28;20040;-74
2021/09/22 10:10:37;;;;;;;5.38;4.35;;;13.90;63.30;;;;;;5074406;28;20108;-75
2021/09/22 10:13:04;;;;;;;4.93;3.50;;;13.70;63.10;;;;;;5074463;28;20103;-75
2021/09/22 10:15:33;;;;;;;6.68;4.10;;;13.60;63.60;;;;;;5074229;28;20025;-74
2021/09/22 10:18:00;;;;;;;5.70;3.85;;;13.50;64.10;;;;;;5074102;28;20063;-74
2021/09/22 10:20:26;;;;;;;8.40;3.60;;;13.30;64.50;;;;;;5074096;28;20024;-76
2021/09/22 10:22:51;;;;;;;6.50;4.10;;;13.30;64.80;;;;;;5056553;28;20055;-74
2021/09/22 10:25:21;;;;;;;5.25;4.10;;;13.30;64.70;;;;;;5074174;28;20029;-74
2021/09/22 10:27:48;;;;;;;6.35;4.30;;;13.30;64.90;;;;;;5074177;28;20039;-74
2021/09/22 10:30:15;;;;;;;6.93;4.65;;;13.20;65.40;;;;;;5056011;28;20024;-74
2021/09/22 10:32:45;;;;;;;6.43;4.18;;;13.30;65.80;;;;;;5055912;28;20466;-75
2021/09/22 10:35:26;;;;;;;5.18;4.18;;;13.40;65.60;;;;;;5056023;28;20378;-75
2021/09/22 10:38:01;;;;;;;6.93;4.35;;;13.50;65.30;;;;;;5055837;28;20055;-73
2021/09/22 10:40:56;;;;;;;3.90;3.03;;;13.60;65.40;;;;;;5056046;28;20031;-75
2021/09/22 10:43:29;;;;;;;5.20;3.35;;;13.80;64.30;;;;;;5055865;28;20032;-75
2021/09/22 10:46:07;;;;;;;4.53;3.20;;;13.80;64.30;;;;;;5073780;28;20020;-75
2021/09/22 10:48:59;;;;;;;7.82;3.67;;;13.90;63.80;;;;;;5073728;28;20432;-74
2021/09/22 10:51:31;;;;;;;4.47;3.47;;;13.70;63.80;;;;;;5056080;28;20025;-75
2021/09/22 10:54:06;;;;;;;7.50;3.50;;;13.50;64.20;;;;;;5073789;28;20040;-75
2021/09/22 10:56:31;;;;;;;6.22;3.20;;;13.40;64.50;;;;;;5055728;28;20562;-75
2021/09/22 10:59:00;;;;;;;4.60;3.03;;;13.10;64.70;;;;;;5055884;28;20115;-75
2021/09/22 11:01:31;;;;;;;4.35;3.00;;;12.90;65.10;;;;;;5055789;28;20082;-75
2021/09/22 11:03:58;;;;;;;5.18;2.97;;;12.70;65.60;;;;;;5055601;28;20489;-74
2021/09/22 11:06:42;;;;;;;4.55;3.05;;;12.50;66.10;;;;;;5055239;28;20056;-76
2021/09/22 11:09:10;;;;;;;4.68;3.17;;;12.30;66.60;;;;;;5073505;28;20031;-74
2021/09/22 11:12:01;;;;;;;5.88;3.42;;;12.20;67.10;;;;;;5055463;28;20173;-75
2021/09/22 11:14:34;;;;;;;10.73;4.18;;;12.10;67.40;;;;;;5073671;28;20083;-77
2021/09/22 11:17:10;;;;;;;8.18;4.45;;;11.90;67.80;;;;;;5073555;28;20029;-76
2021/09/22 11:19:37;;;;;;;5.55;4.00;;;11.80;68.30;;;;;;5073482;28;20413;-76
2021/09/22 11:22:06;;;;;;;9.48;4.38;;;11.70;68.70;;;;;;5055336;28;20031;-76
2021/09/22 11:24:33;;;;;;;7.10;4.40;;;11.70;69.20;;;;;;5072899;28;20028;-76
2021/09/22 11:27:07;;;;;;;6.95;4.50;;;11.80;69.40;;;;;;5055350;28;20029;-75
2021/09/22 11:29:44;;;;;;;6.50;4.35;;;12.00;69.20;;;;;;5073709;28;20060;-75
2021/09/22 11:32:34;;;;;;;5.93;3.70;;;12.20;69.00;;;;;;5055734;28;20475;-75
2021/09/22 11:35:07;;;;;;;4.30;2.97;;;12.40;68.50;;;;;;5055600;28;20463;-75
2021/09/22 11:37:40;;;;;;;5.47;3.20;;;12.70;68.60;;;;;;5055412;28;20474;-75
2021/09/22 11:40:19;;;;;;;5.50;3.53;;;13.00;67.50;;;;;;5055456;28;20021;-73
2021/09/22 11:42:58;;;;;;;5.68;3.22;;;13.30;66.50;;;;;;5055730;28;20348;-74
2021/09/22 11:45:26;;;;;;;5.65;3.47;;;13.40;66.40;;;;;;5073225;28;20112;-75
2021/09/22 11:47:52;;;;;;;6.82;3.08;;;13.60;66.30;;;;;;5072979;28;20037;-75
2021/09/22 11:50:50;;;;;;;6.93;3.42;;;13.70;65.50;;;;;;5076392;28;20340;-74
2021/09/22 11:53:21;;;;;;;4.30;2.95;;;13.80;64.80;;;;;;5005568;28;20536;-75
2021/09/22 11:55:49;;;;;;;3.95;2.80;;;13.90;64.50;;;;;;5058930;28;20032;-74
2021/09/22 11:58:20;;;;;;;4.10;2.83;;;13.80;63.60;;;;;;5058992;28;20115;-75
2021/09/22 12:00:50;;;;;;;6.70;2.83;;;13.60;63.30;;;;;;5077201;28;20017;-74
2021/09/22 12:03:16;;;;;;;4.70;3.20;;;13.30;63.70;;;;;;5058859;28;20111;-75
2021/09/22 12:05:43;;;;;;;5.50;3.88;;;13.10;64.60;;;;;;5058730;28;20120;-75
2021/09/22 12:08:11;;;;;;;6.13;4.30;;;13.00;65.30;;;;;;5076627;28;20047;-74
2021/09/22 12:10:43;;;;;;;5.38;4.18;;;12.80;65.70;;;;;;5076616;28;20025;-75
2021/09/22 12:13:10;;;;;;;7.10;4.70;;;12.70;66.10;;;;;;5058696;28;20074;-74
2021/09/22 12:15:35;;;;;;;6.05;4.63;;;12.50;66.40;;;;;;5058473;28;20117;-75
2021/09/22 12:18:02;;;;;;;5.88;3.70;;;12.40;67.50;;;;;;5058602;28;20063;-74
2021/09/22 12:20:29;;;;;;;4.88;3.08;;;12.40;67.80;;;;;;5076448;28;20021;-74
2021/09/22 12:23:01;;;;;;;4.70;3.53;;;12.30;67.80;;;;;;5076521;28;20099;-74
2021/09/22 12:25:27;;;;;;;5.38;3.80;;;12.30;67.80;;;;;;5058221;28;20024;-73
2021/09/22 12:27:53;;;;;;;7.38;3.92;;;12.20;68.00;;;;;;5058279;28;20047;-74
2021/09/22 12:30:30;;;;;;;6.88;4.00;;;12.20;68.20;;;;;;5076218;28;20028;-75
2021/09/22 12:33:00;;;;;;;4.55;2.90;;;12.20;67.90;;;;;;5076191;28;20032;-75
2021/09/22 12:35:31;;;;;;;4.05;2.55;;;12.20;67.70;;;;;;5058117;28;20399;-74
2021/09/22 12:38:01;;;;;;;5.55;3.03;;;12.20;67.90;;;;;;5057993;28;20029;-73
2021/09/22 12:40:38;;;;;;;4.70;3.00;;;12.20;68.20;;;;;;5058356;28;20148;-73
2021/09/22 12:43:18;;;;;;;5.82;3.00;;;12.10;68.40;;;;;;5058117;28;20032;-77
2021/09/22 12:45:44;;;;;;;4.32;3.33;;;12.20;68.40;;;;;;5076204;28;20028;-77
2021/09/22 12:48:10;;;;;;;6.53;3.50;;;12.20;68.30;;;;;;5075893;28;20044;-74
2021/09/22 12:50:38;;;;;;;5.68;3.40;;;12.30;68.40;;;;;;5058035;28;20025;-74
2021/09/22 12:53:15;;;;;;;4.40;3.10;;;12.30;68.50;;;;;;5057909;28;20115;-76